sensor_id;sensor_type;location;lat;lon;timestamp;P1;durP1;ratioP1;P2;durP2;ratioP2
30420;SDS011;17218;54.070;10.012;2022-08-05T00:01:10;5.93;;;3.50;;
30420;SDS011;17218;54.070;10.012;2022-08-05T00:03:38;6.28;;;3.42;;
30420;SDS011;17218;54.070;10.012;2022-08-05T00:06:05;7.93;;;3.67;;
30420;SDS011;17218;54.070;10.012;2022-08-05T00:08:33;5.82;;;3.50;;
30420;SDS011;17218;54.070;10.012;2022-08-05T00:11:08;6.47;;;3.75;;
30420;SDS011;17218;54.070;10.012;2022-08-05T00:13:36;3.13;;;2.83;;
30420;SDS011;17218;54.070;10.012;2022-08-05T00:16:05;4.10;;;2.92;;
30420;SDS011;17218;54.070;10.012;2022-08-05T00:18:33;6.35;;;3.70;;
30420;SDS011;17218;54.070;10.012;2022-08-05T00:21:01;4.93;;;2.83;;
30420;SDS011;17218;54.070;10.012;2022-08-05T00:23:27;5.22;;;3.05;;
30420;SDS011;17218;54.070;10.012;2022-08-05T00:25:55;4.50;;;2.83;;
30420;SDS011;17218;54.070;10.012;2022-08-05T00:28:22;6.18;;;3.25;;
30420;SDS011;17218;54.070;10.012;2022-08-05T00:30:48;4.28;;;2.63;;
30420;SDS011;17218;54.070;10.012;2022-08-05T00:33:15;2.97;;;2.35;;
30420;SDS011;17218;54.070;10.012;2022-08-05T00:35:42;4.53;;;2.88;;
30420;SDS011;17218;54.070;10.012;2022-08-05T00:38:09;7.05;;;2.42;;
30420;SDS011;17218;54.070;10.012;2022-08-05T00:40:44;3.28;;;2.13;;
30420;SDS011;17218;54.070;10.012;2022-08-05T00:43:16;2.97;;;2.10;;
30420;SDS011;17218;54.070;10.012;2022-08-05T00:45:42;3.10;;;2.08;;
30420;SDS011;17218;54.070;10.012;2022-08-05T00:48:10;4.38;;;2.10;;
30420;SDS011;17218;54.070;10.012;2022-08-05T00:50:40;4.05;;;2.13;;
30420;SDS011;17218;54.070;10.012;2022-08-05T00:53:08;3.92;;;2.30;;
30420;SDS011;17218;54.070;10.012;2022-08-05T00:55:35;4.15;;;1.90;;
30420;SDS011;17218;54.070;10.012;2022-08-05T00:58:02;5.43;;;2.20;;
30420;SDS011;17218;54.070;10.012;2022-08-05T01:00:30;3.90;;;2.00;;
30420;SDS011;17218;54.070;10.012;2022-08-05T01:02:57;5.57;;;2.15;;
30420;SDS011;17218;54.070;10.012;2022-08-05T01:05:24;5.25;;;2.50;;
30420;SDS011;17218;54.070;10.012;2022-08-05T01:07:51;3.58;;;2.00;;
30420;SDS011;17218;54.070;10.012;2022-08-05T01:10:19;4.30;;;2.25;;
30420;SDS011;17218;54.070;10.012;2022-08-05T01:12:50;4.47;;;1.80;;
30420;SDS011;17218;54.070;10.012;2022-08-05T01:15:20;4.03;;;2.08;;
30420;SDS011;17218;54.070;10.012;2022-08-05T01:17:52;3.28;;;2.00;;
30420;SDS011;17218;54.070;10.012;2022-08-05T01:20:27;4.80;;;2.60;;
30420;SDS011;17218;54.070;10.012;2022-08-05T01:23:00;2.97;;;1.90;;
30420;SDS011;17218;54.070;10.012;2022-08-05T01:28:40;5.05;;;2.53;;
30420;SDS011;17218;54.070;10.012;2022-08-05T01:31:09;4.07;;;2.55;;
30420;SDS011;17218;54.070;10.012;2022-08-05T01:33:42;3.67;;;3.00;;
30420;SDS011;17218;54.070;10.012;2022-08-05T01:36:14;3.35;;;2.53;;
30420;SDS011;17218;54.070;10.012;2022-08-05T01:38:44;5.10;;;2.80;;
30420;SDS011;17218;54.070;10.012;2022-08-05T01:41:12;4.28;;;2.47;;
30420;SDS011;17218;54.070;10.012;2022-08-05T01:43:43;4.60;;;2.30;;
30420;SDS011;17218;54.070;10.012;2022-08-05T01:46:11;5.93;;;3.00;;
30420;SDS011;17218;54.070;10.012;2022-08-05T01:48:39;4.13;;;2.30;;
30420;SDS011;17218;54.070;10.012;2022-08-05T01:51:06;4.07;;;2.60;;
30420;SDS011;17218;54.070;10.012;2022-08-05T01:53:34;5.15;;;2.47;;
30420;SDS011;17218;54.070;10.012;2022-08-05T01:56:07;5.90;;;2.50;;
30420;SDS011;17218;54.070;10.012;2022-08-05T01:58:36;4.78;;;2.45;;
30420;SDS011;17218;54.070;10.012;2022-08-05T02:01:05;6.13;;;2.70;;
30420;SDS011;17218;54.070;10.012;2022-08-05T02:03:33;5.35;;;2.58;;
30420;SDS011;17218;54.070;10.012;2022-08-05T02:06:03;6.32;;;2.40;;
30420;SDS011;17218;54.070;10.012;2022-08-05T02:08:35;4.00;;;2.70;;
30420;SDS011;17218;54.070;10.012;2022-08-05T02:11:03;4.75;;;2.22;;
30420;SDS011;17218;54.070;10.012;2022-08-05T02:13:37;4.25;;;2.60;;
30420;SDS011;17218;54.070;10.012;2022-08-05T02:16:11;4.25;;;2.47;;
30420;SDS011;17218;54.070;10.012;2022-08-05T02:18:46;4.88;;;2.45;;
30420;SDS011;17218;54.070;10.012;2022-08-05T02:21:16;5.32;;;2.35;;
30420;SDS011;17218;54.070;10.012;2022-08-05T02:23:46;2.72;;;2.13;;
30420;SDS011;17218;54.070;10.012;2022-08-05T02:26:18;4.30;;;2.20;;
30420;SDS011;17218;54.070;10.012;2022-08-05T02:28:47;7.00;;;2.22;;
30420;SDS011;17218;54.070;10.012;2022-08-05T02:31:18;3.58;;;2.08;;
30420;SDS011;17218;54.070;10.012;2022-08-05T02:33:49;3.95;;;2.13;;
30420;SDS011;17218;54.070;10.012;2022-08-05T02:36:18;5.22;;;2.40;;
30420;SDS011;17218;54.070;10.012;2022-08-05T02:38:48;3.42;;;2.20;;
30420;SDS011;17218;54.070;10.012;2022-08-05T02:41:15;3.10;;;2.47;;
30420;SDS011;17218;54.070;10.012;2022-08-05T02:43:45;3.60;;;2.70;;
30420;SDS011;17218;54.070;10.012;2022-08-05T02:46:13;3.22;;;2.13;;
30420;SDS011;17218;54.070;10.012;2022-08-05T02:48:43;4.45;;;2.20;;
30420;SDS011;17218;54.070;10.012;2022-08-05T02:51:11;5.53;;;2.42;;
30420;SDS011;17218;54.070;10.012;2022-08-05T02:53:40;4.38;;;2.45;;
30420;SDS011;17218;54.070;10.012;2022-08-05T02:56:08;4.60;;;2.45;;
30420;SDS011;17218;54.070;10.012;2022-08-05T02:58:36;3.63;;;2.47;;
30420;SDS011;17218;54.070;10.012;2022-08-05T03:01:05;3.70;;;2.38;;
30420;SDS011;17218;54.070;10.012;2022-08-05T03:03:36;3.30;;;2.78;;
30420;SDS011;17218;54.070;10.012;2022-08-05T03:06:07;6.18;;;2.60;;
30420;SDS011;17218;54.070;10.012;2022-08-05T03:08:35;6.68;;;2.60;;
30420;SDS011;17218;54.070;10.012;2022-08-05T03:11:03;3.88;;;2.60;;
30420;SDS011;17218;54.070;10.012;2022-08-05T03:13:30;4.50;;;2.80;;
30420;SDS011;17218;54.070;10.012;2022-08-05T03:15:56;5.47;;;3.15;;
30420;SDS011;17218;54.070;10.012;2022-08-05T03:18:23;4.18;;;2.70;;
30420;SDS011;17218;54.070;10.012;2022-08-05T03:20:49;4.03;;;3.05;;
30420;SDS011;17218;54.070;10.012;2022-08-05T03:23:17;4.78;;;3.35;;
30420;SDS011;17218;54.070;10.012;2022-08-05T03:25:44;6.05;;;2.88;;
30420;SDS011;17218;54.070;10.012;2022-08-05T03:28:11;5.22;;;2.97;;
30420;SDS011;17218;54.070;10.012;2022-08-05T03:30:37;5.43;;;3.17;;
30420;SDS011;17218;54.070;10.012;2022-08-05T03:33:05;5.90;;;2.80;;
30420;SDS011;17218;54.070;10.012;2022-08-05T03:35:31;4.97;;;3.13;;
30420;SDS011;17218;54.070;10.012;2022-08-05T03:38:00;3.60;;;2.92;;
30420;SDS011;17218;54.070;10.012;2022-08-05T03:40:28;3.38;;;2.83;;
30420;SDS011;17218;54.070;10.012;2022-08-05T03:42:55;4.80;;;3.03;;
30420;SDS011;17218;54.070;10.012;2022-08-05T03:45:22;4.40;;;3.00;;
30420;SDS011;17218;54.070;10.012;2022-08-05T03:47:48;5.32;;;3.30;;
30420;SDS011;17218;54.070;10.012;2022-08-05T03:50:15;6.00;;;3.05;;
30420;SDS011;17218;54.070;10.012;2022-08-05T03:52:44;3.90;;;2.70;;
30420;SDS011;17218;54.070;10.012;2022-08-05T03:55:20;8.50;;;3.20;;
30420;SDS011;17218;54.070;10.012;2022-08-05T03:57:52;4.50;;;2.67;;
30420;SDS011;17218;54.070;10.012;2022-08-05T04:00:20;5.40;;;2.70;;
30420;SDS011;17218;54.070;10.012;2022-08-05T04:02:50;4.82;;;2.90;;
30420;SDS011;17218;54.070;10.012;2022-08-05T04:05:20;4.40;;;3.35;;
30420;SDS011;17218;54.070;10.012;2022-08-05T04:07:48;6.40;;;3.35;;
30420;SDS011;17218;54.070;10.012;2022-08-05T04:10:15;3.90;;;3.22;;
30420;SDS011;17218;54.070;10.012;2022-08-05T04:12:42;4.57;;;3.40;;
30420;SDS011;17218;54.070;10.012;2022-08-05T04:15:11;4.05;;;2.90;;
30420;SDS011;17218;54.070;10.012;2022-08-05T04:17:37;4.28;;;3.17;;
30420;SDS011;17218;54.070;10.012;2022-08-05T04:20:04;4.40;;;3.20;;
30420;SDS011;17218;54.070;10.012;2022-08-05T04:22:31;4.20;;;3.55;;
30420;SDS011;17218;54.070;10.012;2022-08-05T04:24:58;6.57;;;3.28;;
30420;SDS011;17218;54.070;10.012;2022-08-05T04:27:25;4.40;;;3.42;;
30420;SDS011;17218;54.070;10.012;2022-08-05T04:29:51;4.95;;;3.22;;
30420;SDS011;17218;54.070;10.012;2022-08-05T04:32:19;5.90;;;3.28;;
30420;SDS011;17218;54.070;10.012;2022-08-05T04:34:46;6.07;;;3.25;;
30420;SDS011;17218;54.070;10.012;2022-08-05T04:37:13;9.23;;;4.03;;
30420;SDS011;17218;54.070;10.012;2022-08-05T04:39:39;6.32;;;3.53;;
30420;SDS011;17218;54.070;10.012;2022-08-05T04:42:06;8.90;;;3.90;;
30420;SDS011;17218;54.070;10.012;2022-08-05T04:44:33;5.50;;;3.92;;
30420;SDS011;17218;54.070;10.012;2022-08-05T04:47:00;6.90;;;3.88;;
30420;SDS011;17218;54.070;10.012;2022-08-05T04:49:28;5.15;;;3.47;;
30420;SDS011;17218;54.070;10.012;2022-08-05T04:51:54;6.05;;;3.97;;
30420;SDS011;17218;54.070;10.012;2022-08-05T04:54:21;4.63;;;4.13;;
30420;SDS011;17218;54.070;10.012;2022-08-05T04:56:51;4.40;;;3.33;;
30420;SDS011;17218;54.070;10.012;2022-08-05T04:59:17;4.22;;;3.60;;
30420;SDS011;17218;54.070;10.012;2022-08-05T05:01:44;5.90;;;3.67;;
30420;SDS011;17218;54.070;10.012;2022-08-05T05:04:11;4.82;;;3.75;;
30420;SDS011;17218;54.070;10.012;2022-08-05T05:06:39;5.38;;;3.80;;
30420;SDS011;17218;54.070;10.012;2022-08-05T05:09:05;5.72;;;3.80;;
30420;SDS011;17218;54.070;10.012;2022-08-05T05:11:32;6.20;;;3.70;;
30420;SDS011;17218;54.070;10.012;2022-08-05T05:13:58;4.07;;;3.20;;
30420;SDS011;17218;54.070;10.012;2022-08-05T05:16:27;4.90;;;3.78;;
30420;SDS011;17218;54.070;10.012;2022-08-05T05:18:53;4.88;;;3.88;;
30420;SDS011;17218;54.070;10.012;2022-08-05T05:21:20;4.82;;;3.58;;
30420;SDS011;17218;54.070;10.012;2022-08-05T05:23:48;5.10;;;3.22;;
30420;SDS011;17218;54.070;10.012;2022-08-05T05:26:15;5.18;;;3.22;;
30420;SDS011;17218;54.070;10.012;2022-08-05T05:28:41;5.75;;;4.40;;
30420;SDS011;17218;54.070;10.012;2022-08-05T05:31:08;5.15;;;3.42;;
30420;SDS011;17218;54.070;10.012;2022-08-05T05:33:34;4.13;;;3.25;;
30420;SDS011;17218;54.070;10.012;2022-08-05T05:36:04;3.58;;;3.15;;
30420;SDS011;17218;54.070;10.012;2022-08-05T05:38:31;6.03;;;3.42;;
30420;SDS011;17218;54.070;10.012;2022-08-05T05:40:59;4.35;;;3.13;;
30420;SDS011;17218;54.070;10.012;2022-08-05T05:43:25;4.63;;;3.63;;
30420;SDS011;17218;54.070;10.012;2022-08-05T05:45:52;4.70;;;3.00;;
30420;SDS011;17218;54.070;10.012;2022-08-05T05:48:19;5.15;;;3.22;;
30420;SDS011;17218;54.070;10.012;2022-08-05T05:50:45;5.72;;;3.22;;
30420;SDS011;17218;54.070;10.012;2022-08-05T05:53:12;4.03;;;3.25;;
30420;SDS011;17218;54.070;10.012;2022-08-05T05:55:39;8.20;;;3.30;;
30420;SDS011;17218;54.070;10.012;2022-08-05T05:58:07;4.32;;;2.95;;
30420;SDS011;17218;54.070;10.012;2022-08-05T06:00:34;7.95;;;3.20;;
30420;SDS011;17218;54.070;10.012;2022-08-05T06:03:00;3.47;;;2.58;;
30420;SDS011;17218;54.070;10.012;2022-08-05T06:05:27;4.70;;;3.10;;
30420;SDS011;17218;54.070;10.012;2022-08-05T06:07:54;4.50;;;2.90;;
30420;SDS011;17218;54.070;10.012;2022-08-05T06:10:20;4.40;;;2.90;;
30420;SDS011;17218;54.070;10.012;2022-08-05T06:12:47;6.47;;;3.38;;
30420;SDS011;17218;54.070;10.012;2022-08-05T06:15:15;5.28;;;3.92;;
30420;SDS011;17218;54.070;10.012;2022-08-05T06:17:42;4.88;;;3.03;;
30420;SDS011;17218;54.070;10.012;2022-08-05T06:20:08;6.38;;;3.30;;
30420;SDS011;17218;54.070;10.012;2022-08-05T06:22:35;5.85;;;3.15;;
30420;SDS011;17218;54.070;10.012;2022-08-05T06:25:03;4.45;;;2.92;;
30420;SDS011;17218;54.070;10.012;2022-08-05T06:27:32;6.45;;;3.15;;
30420;SDS011;17218;54.070;10.012;2022-08-05T06:29:58;8.75;;;3.13;;
30420;SDS011;17218;54.070;10.012;2022-08-05T06:32:26;4.50;;;2.50;;
30420;SDS011;17218;54.070;10.012;2022-08-05T06:34:53;4.75;;;3.05;;
30420;SDS011;17218;54.070;10.012;2022-08-05T06:37:20;6.78;;;3.10;;
30420;SDS011;17218;54.070;10.012;2022-08-05T06:39:48;5.45;;;3.65;;
30420;SDS011;17218;54.070;10.012;2022-08-05T06:42:15;4.55;;;2.60;;
30420;SDS011;17218;54.070;10.012;2022-08-05T06:44:42;2.95;;;2.70;;
30420;SDS011;17218;54.070;10.012;2022-08-05T06:47:09;5.00;;;2.95;;
30420;SDS011;17218;54.070;10.012;2022-08-05T06:49:37;4.80;;;3.53;;
30420;SDS011;17218;54.070;10.012;2022-08-05T06:52:03;7.15;;;2.90;;
30420;SDS011;17218;54.070;10.012;2022-08-05T06:54:30;4.38;;;2.60;;
30420;SDS011;17218;54.070;10.012;2022-08-05T06:56:57;5.68;;;3.53;;
30420;SDS011;17218;54.070;10.012;2022-08-05T06:59:23;7.00;;;3.60;;
30420;SDS011;17218;54.070;10.012;2022-08-05T07:01:50;5.70;;;3.50;;
30420;SDS011;17218;54.070;10.012;2022-08-05T07:04:16;5.15;;;2.53;;
30420;SDS011;17218;54.070;10.012;2022-08-05T07:06:44;4.53;;;2.58;;
30420;SDS011;17218;54.070;10.012;2022-08-05T07:09:11;5.05;;;2.90;;
30420;SDS011;17218;54.070;10.012;2022-08-05T07:11:38;6.50;;;2.65;;
30420;SDS011;17218;54.070;10.012;2022-08-05T07:14:04;4.57;;;2.22;;
30420;SDS011;17218;54.070;10.012;2022-08-05T07:16:48;4.65;;;2.60;;
30420;SDS011;17218;54.070;10.012;2022-08-05T07:19:15;6.13;;;2.80;;
30420;SDS011;17218;54.070;10.012;2022-08-05T07:21:42;3.30;;;1.98;;
30420;SDS011;17218;54.070;10.012;2022-08-05T07:24:11;8.48;;;2.90;;
30420;SDS011;17218;54.070;10.012;2022-08-05T07:26:38;4.55;;;1.95;;
30420;SDS011;17218;54.070;10.012;2022-08-05T07:29:05;4.57;;;1.95;;
30420;SDS011;17218;54.070;10.012;2022-08-05T07:31:32;5.57;;;1.80;;
30420;SDS011;17218;54.070;10.012;2022-08-05T07:33:59;3.20;;;1.90;;
30420;SDS011;17218;54.070;10.012;2022-08-05T07:36:25;4.13;;;1.90;;
30420;SDS011;17218;54.070;10.012;2022-08-05T07:38:53;4.90;;;1.95;;
30420;SDS011;17218;54.070;10.012;2022-08-05T07:41:21;3.42;;;1.58;;
30420;SDS011;17218;54.070;10.012;2022-08-05T07:43:49;3.55;;;1.65;;
30420;SDS011;17218;54.070;10.012;2022-08-05T07:46:15;2.38;;;1.55;;
30420;SDS011;17218;54.070;10.012;2022-08-05T07:48:42;3.13;;;1.67;;
30420;SDS011;17218;54.070;10.012;2022-08-05T07:51:09;2.60;;;1.63;;
30420;SDS011;17218;54.070;10.012;2022-08-05T07:53:35;2.78;;;1.60;;
30420;SDS011;17218;54.070;10.012;2022-08-05T07:56:03;6.10;;;1.60;;
30420;SDS011;17218;54.070;10.012;2022-08-05T07:58:30;3.55;;;1.60;;
30420;SDS011;17218;54.070;10.012;2022-08-05T08:00:57;3.80;;;1.60;;
30420;SDS011;17218;54.070;10.012;2022-08-05T08:03:23;5.97;;;1.55;;
30420;SDS011;17218;54.070;10.012;2022-08-05T08:05:50;4.07;;;1.35;;
30420;SDS011;17218;54.070;10.012;2022-08-05T08:08:17;4.93;;;1.83;;
30420;SDS011;17218;54.070;10.012;2022-08-05T08:10:46;2.60;;;1.33;;
30420;SDS011;17218;54.070;10.012;2022-08-05T08:13:24;2.72;;;1.50;;
30420;SDS011;17218;54.070;10.012;2022-08-05T08:16:18;3.00;;;1.30;;
30420;SDS011;17218;54.070;10.012;2022-08-05T08:18:54;3.90;;;1.48;;
30420;SDS011;17218;54.070;10.012;2022-08-05T08:21:21;3.83;;;1.52;;
30420;SDS011;17218;54.070;10.012;2022-08-05T08:23:47;2.40;;;1.27;;
30420;SDS011;17218;54.070;10.012;2022-08-05T08:26:14;3.33;;;1.35;;
30420;SDS011;17218;54.070;10.012;2022-08-05T08:31:55;4.85;;;1.60;;
30420;SDS011;17218;54.070;10.012;2022-08-05T08:34:22;4.22;;;1.15;;
30420;SDS011;17218;54.070;10.012;2022-08-05T08:36:49;3.05;;;1.17;;
30420;SDS011;17218;54.070;10.012;2022-08-05T08:39:16;3.67;;;1.55;;
30420;SDS011;17218;54.070;10.012;2022-08-05T08:41:44;3.03;;;1.30;;
30420;SDS011;17218;54.070;10.012;2022-08-05T08:44:13;2.55;;;1.45;;
30420;SDS011;17218;54.070;10.012;2022-08-05T08:46:40;2.15;;;1.40;;
30420;SDS011;17218;54.070;10.012;2022-08-05T08:49:11;4.82;;;1.42;;
30420;SDS011;17218;54.070;10.012;2022-08-05T08:51:39;3.63;;;1.85;;
30420;SDS011;17218;54.070;10.012;2022-08-05T08:54:07;4.38;;;1.60;;
30420;SDS011;17218;54.070;10.012;2022-08-05T08:56:36;4.53;;;1.30;;
30420;SDS011;17218;54.070;10.012;2022-08-05T08:59:04;2.15;;;1.40;;
30420;SDS011;17218;54.070;10.012;2022-08-05T09:01:31;3.28;;;1.90;;
30420;SDS011;17218;54.070;10.012;2022-08-05T09:03:58;4.20;;;1.58;;
30420;SDS011;17218;54.070;10.012;2022-08-05T09:06:26;3.80;;;1.30;;
30420;SDS011;17218;54.070;10.012;2022-08-05T09:08:54;2.45;;;1.35;;
30420;SDS011;17218;54.070;10.012;2022-08-05T09:11:21;2.40;;;1.20;;
30420;SDS011;17218;54.070;10.012;2022-08-05T09:13:48;4.13;;;1.45;;
30420;SDS011;17218;54.070;10.012;2022-08-05T09:16:15;6.05;;;1.48;;
30420;SDS011;17218;54.070;10.012;2022-08-05T09:18:42;3.33;;;1.40;;
30420;SDS011;17218;54.070;10.012;2022-08-05T09:21:09;3.05;;;1.20;;
30420;SDS011;17218;54.070;10.012;2022-08-05T09:23:37;3.00;;;1.42;;
30420;SDS011;17218;54.070;10.012;2022-08-05T09:26:07;3.17;;;1.30;;
30420;SDS011;17218;54.070;10.012;2022-08-05T09:28:36;3.55;;;1.58;;
30420;SDS011;17218;54.070;10.012;2022-08-05T09:31:05;3.75;;;1.30;;
30420;SDS011;17218;54.070;10.012;2022-08-05T09:33:45;2.00;;;1.10;;
30420;SDS011;17218;54.070;10.012;2022-08-05T09:36:12;4.63;;;1.52;;
30420;SDS011;17218;54.070;10.012;2022-08-05T09:38:41;4.13;;;1.52;;
30420;SDS011;17218;54.070;10.012;2022-08-05T09:41:20;1.55;;;1.10;;
30420;SDS011;17218;54.070;10.012;2022-08-05T09:43:47;1.95;;;1.00;;
30420;SDS011;17218;54.070;10.012;2022-08-05T09:46:23;2.83;;;1.20;;
30420;SDS011;17218;54.070;10.012;2022-08-05T09:48:52;2.05;;;1.17;;
30420;SDS011;17218;54.070;10.012;2022-08-05T09:51:30;2.90;;;1.67;;
30420;SDS011;17218;54.070;10.012;2022-08-05T09:53:59;2.47;;;1.25;;
30420;SDS011;17218;54.070;10.012;2022-08-05T09:56:29;3.30;;;1.30;;
30420;SDS011;17218;54.070;10.012;2022-08-05T09:58:59;3.20;;;1.25;;
30420;SDS011;17218;54.070;10.012;2022-08-05T10:01:28;2.55;;;1.05;;
30420;SDS011;17218;54.070;10.012;2022-08-05T10:03:58;4.63;;;1.38;;
30420;SDS011;17218;54.070;10.012;2022-08-05T10:06:28;5.18;;;1.45;;
30420;SDS011;17218;54.070;10.012;2022-08-05T10:08:56;2.72;;;1.05;;
30420;SDS011;17218;54.070;10.012;2022-08-05T10:11:37;3.45;;;1.33;;
30420;SDS011;17218;54.070;10.012;2022-08-05T10:14:20;2.47;;;1.02;;
30420;SDS011;17218;54.070;10.012;2022-08-05T10:16:48;4.80;;;1.30;;
30420;SDS011;17218;54.070;10.012;2022-08-05T10:19:16;4.88;;;1.13;;
30420;SDS011;17218;54.070;10.012;2022-08-05T10:21:45;6.22;;;1.73;;
30420;SDS011;17218;54.070;10.012;2022-08-05T10:24:14;3.70;;;1.40;;
30420;SDS011;17218;54.070;10.012;2022-08-05T10:26:43;2.50;;;1.30;;
30420;SDS011;17218;54.070;10.012;2022-08-05T10:29:12;7.40;;;1.10;;
30420;SDS011;17218;54.070;10.012;2022-08-05T10:31:39;2.88;;;1.38;;
30420;SDS011;17218;54.070;10.012;2022-08-05T10:34:06;3.63;;;1.23;;
30420;SDS011;17218;54.070;10.012;2022-08-05T10:36:34;2.08;;;1.17;;
30420;SDS011;17218;54.070;10.012;2022-08-05T10:39:03;4.53;;;1.00;;
30420;SDS011;17218;54.070;10.012;2022-08-05T10:41:34;4.05;;;1.00;;
30420;SDS011;17218;54.070;10.012;2022-08-05T10:44:09;1.98;;;1.50;;
30420;SDS011;17218;54.070;10.012;2022-08-05T10:46:44;3.40;;;1.20;;
30420;SDS011;17218;54.070;10.012;2022-08-05T10:49:13;2.20;;;1.30;;
30420;SDS011;17218;54.070;10.012;2022-08-05T10:51:41;2.25;;;1.00;;
30420;SDS011;17218;54.070;10.012;2022-08-05T10:54:08;5.07;;;1.83;;
30420;SDS011;17218;54.070;10.012;2022-08-05T10:56:43;4.13;;;1.27;;
30420;SDS011;17218;54.070;10.012;2022-08-05T10:59:15;3.10;;;1.48;;
30420;SDS011;17218;54.070;10.012;2022-08-05T11:01:42;4.30;;;1.67;;
30420;SDS011;17218;54.070;10.012;2022-08-05T11:04:09;2.28;;;1.15;;
30420;SDS011;17218;54.070;10.012;2022-08-05T11:09:41;3.15;;;1.30;;
30420;SDS011;17218;54.070;10.012;2022-08-05T11:15:15;2.53;;;1.30;;
30420;SDS011;17218;54.070;10.012;2022-08-05T11:17:45;4.00;;;1.58;;
30420;SDS011;17218;54.070;10.012;2022-08-05T11:23:28;2.83;;;1.27;;
30420;SDS011;17218;54.070;10.012;2022-08-05T11:26:00;3.15;;;1.85;;
30420;SDS011;17218;54.070;10.012;2022-08-05T11:28:39;3.33;;;1.67;;
30420;SDS011;17218;54.070;10.012;2022-08-05T11:31:20;7.10;;;1.90;;
30420;SDS011;17218;54.070;10.012;2022-08-05T11:33:52;4.97;;;1.42;;
30420;SDS011;17218;54.070;10.012;2022-08-05T11:39:16;3.65;;;1.35;;
30420;SDS011;17218;54.070;10.012;2022-08-05T11:42:07;4.15;;;1.58;;
30420;SDS011;17218;54.070;10.012;2022-08-05T11:44:35;5.40;;;1.90;;
30420;SDS011;17218;54.070;10.012;2022-08-05T11:47:03;5.85;;;1.77;;
30420;SDS011;17218;54.070;10.012;2022-08-05T11:49:31;3.20;;;2.00;;
30420;SDS011;17218;54.070;10.012;2022-08-05T11:51:57;5.28;;;1.58;;
30420;SDS011;17218;54.070;10.012;2022-08-05T11:54:25;3.42;;;1.58;;
30420;SDS011;17218;54.070;10.012;2022-08-05T11:56:53;6.18;;;1.55;;
30420;SDS011;17218;54.070;10.012;2022-08-05T11:59:23;3.17;;;1.88;;
30420;SDS011;17218;54.070;10.012;2022-08-05T12:01:51;4.05;;;1.45;;
30420;SDS011;17218;54.070;10.012;2022-08-05T12:04:22;3.47;;;1.75;;
30420;SDS011;17218;54.070;10.012;2022-08-05T12:06:50;4.10;;;1.80;;
30420;SDS011;17218;54.070;10.012;2022-08-05T12:09:18;4.00;;;1.98;;
30420;SDS011;17218;54.070;10.012;2022-08-05T12:11:48;5.00;;;2.00;;
30420;SDS011;17218;54.070;10.012;2022-08-05T12:14:15;6.20;;;1.60;;
30420;SDS011;17218;54.070;10.012;2022-08-05T12:16:46;3.58;;;2.13;;
30420;SDS011;17218;54.070;10.012;2022-08-05T12:19:13;2.90;;;1.58;;
30420;SDS011;17218;54.070;10.012;2022-08-05T12:21:42;2.97;;;1.77;;
30420;SDS011;17218;54.070;10.012;2022-08-05T12:24:11;3.83;;;1.90;;
30420;SDS011;17218;54.070;10.012;2022-08-05T12:26:40;3.67;;;1.80;;
30420;SDS011;17218;54.070;10.012;2022-08-05T12:29:09;4.15;;;2.05;;
30420;SDS011;17218;54.070;10.012;2022-08-05T12:31:38;3.50;;;1.77;;
30420;SDS011;17218;54.070;10.012;2022-08-05T12:34:06;3.45;;;2.00;;
30420;SDS011;17218;54.070;10.012;2022-08-05T12:36:34;4.50;;;1.83;;
30420;SDS011;17218;54.070;10.012;2022-08-05T12:39:01;2.65;;;1.70;;
30420;SDS011;17218;54.070;10.012;2022-08-05T12:41:29;4.38;;;1.85;;
30420;SDS011;17218;54.070;10.012;2022-08-05T12:43:57;2.47;;;1.63;;
30420;SDS011;17218;54.070;10.012;2022-08-05T12:46:29;4.63;;;2.00;;
30420;SDS011;17218;54.070;10.012;2022-08-05T12:48:58;6.18;;;2.20;;
30420;SDS011;17218;54.070;10.012;2022-08-05T12:51:27;2.90;;;2.40;;
30420;SDS011;17218;54.070;10.012;2022-08-05T12:53:59;4.18;;;2.10;;
30420;SDS011;17218;54.070;10.012;2022-08-05T12:56:27;4.13;;;2.25;;
30420;SDS011;17218;54.070;10.012;2022-08-05T12:59:10;3.75;;;2.00;;
30420;SDS011;17218;54.070;10.012;2022-08-05T13:01:41;4.43;;;1.90;;
30420;SDS011;17218;54.070;10.012;2022-08-05T13:04:08;4.93;;;1.40;;
30420;SDS011;17218;54.070;10.012;2022-08-05T13:06:37;2.75;;;1.35;;
30420;SDS011;17218;54.070;10.012;2022-08-05T13:09:06;3.50;;;1.38;;
30420;SDS011;17218;54.070;10.012;2022-08-05T13:11:36;2.67;;;1.45;;
30420;SDS011;17218;54.070;10.012;2022-08-05T13:14:08;3.85;;;1.50;;
30420;SDS011;17218;54.070;10.012;2022-08-05T13:16:50;3.45;;;1.70;;
30420;SDS011;17218;54.070;10.012;2022-08-05T13:19:19;3.35;;;1.83;;
30420;SDS011;17218;54.070;10.012;2022-08-05T13:21:50;3.25;;;1.83;;
30420;SDS011;17218;54.070;10.012;2022-08-05T13:24:17;4.93;;;1.90;;
30420;SDS011;17218;54.070;10.012;2022-08-05T13:26:44;2.35;;;1.40;;
30420;SDS011;17218;54.070;10.012;2022-08-05T13:29:12;3.17;;;2.05;;
30420;SDS011;17218;54.070;10.012;2022-08-05T13:31:39;3.42;;;1.20;;
30420;SDS011;17218;54.070;10.012;2022-08-05T13:34:06;3.05;;;1.38;;
30420;SDS011;17218;54.070;10.012;2022-08-05T13:36:32;3.90;;;1.30;;
30420;SDS011;17218;54.070;10.012;2022-08-05T13:39:01;3.80;;;1.20;;
30420;SDS011;17218;54.070;10.012;2022-08-05T13:41:29;3.00;;;1.33;;
30420;SDS011;17218;54.070;10.012;2022-08-05T13:43:55;2.30;;;1.05;;
30420;SDS011;17218;54.070;10.012;2022-08-05T13:46:23;3.22;;;1.60;;
30420;SDS011;17218;54.070;10.012;2022-08-05T13:48:51;2.05;;;1.10;;
30420;SDS011;17218;54.070;10.012;2022-08-05T13:51:24;4.65;;;1.15;;
30420;SDS011;17218;54.070;10.012;2022-08-05T13:53:52;2.42;;;0.90;;
30420;SDS011;17218;54.070;10.012;2022-08-05T13:56:20;2.60;;;1.27;;
30420;SDS011;17218;54.070;10.012;2022-08-05T13:58:47;2.85;;;0.98;;
30420;SDS011;17218;54.070;10.012;2022-08-05T14:01:13;3.47;;;1.30;;
30420;SDS011;17218;54.070;10.012;2022-08-05T14:03:40;2.65;;;1.10;;
30420;SDS011;17218;54.070;10.012;2022-08-05T14:06:07;2.90;;;1.35;;
30420;SDS011;17218;54.070;10.012;2022-08-05T14:08:32;1.58;;;0.95;;
30420;SDS011;17218;54.070;10.012;2022-08-05T14:10:59;2.55;;;1.20;;
30420;SDS011;17218;54.070;10.012;2022-08-05T14:13:27;2.35;;;1.10;;
30420;SDS011;17218;54.070;10.012;2022-08-05T14:15:53;2.60;;;1.05;;
30420;SDS011;17218;54.070;10.012;2022-08-05T14:18:20;1.95;;;1.10;;
30420;SDS011;17218;54.070;10.012;2022-08-05T14:20:46;3.13;;;1.08;;
30420;SDS011;17218;54.070;10.012;2022-08-05T14:23:13;4.43;;;0.90;;
30420;SDS011;17218;54.070;10.012;2022-08-05T14:25:40;1.88;;;1.30;;
30420;SDS011;17218;54.070;10.012;2022-08-05T14:28:06;2.58;;;1.00;;
30420;SDS011;17218;54.070;10.012;2022-08-05T14:30:34;2.75;;;1.20;;
30420;SDS011;17218;54.070;10.012;2022-08-05T14:33:01;3.25;;;1.17;;
30420;SDS011;17218;54.070;10.012;2022-08-05T14:35:28;2.80;;;1.20;;
30420;SDS011;17218;54.070;10.012;2022-08-05T14:37:55;4.68;;;0.90;;
30420;SDS011;17218;54.070;10.012;2022-08-05T14:40:21;2.42;;;1.10;;
30420;SDS011;17218;54.070;10.012;2022-08-05T14:42:48;3.90;;;1.10;;
30420;SDS011;17218;54.070;10.012;2022-08-05T14:45:15;5.00;;;1.17;;
30420;SDS011;17218;54.070;10.012;2022-08-05T14:47:42;2.28;;;1.17;;
30420;SDS011;17218;54.070;10.012;2022-08-05T14:50:09;2.00;;;1.02;;
30420;SDS011;17218;54.070;10.012;2022-08-05T14:52:36;3.28;;;1.52;;
30420;SDS011;17218;54.070;10.012;2022-08-05T14:55:02;2.80;;;1.20;;
30420;SDS011;17218;54.070;10.012;2022-08-05T14:57:30;2.40;;;1.17;;
30420;SDS011;17218;54.070;10.012;2022-08-05T14:59:56;2.42;;;1.10;;